sensor_id;sensor_type;location;lat;lon;timestamp;P1;durP1;ratioP1;P2;durP2;ratioP2
70367;SDS011;57789;53.868;10.728;2024-01-11T20:28:35;50.67;;;19.98;;
70367;SDS011;57789;53.868;10.728;2024-01-11T20:31:01;46.30;;;19.27;;
70367;SDS011;57789;53.868;10.728;2024-01-11T20:33:27;45.90;;;19.30;;
70367;SDS011;57789;53.868;10.728;2024-01-11T20:35:53;56.13;;;23.17;;
70367;SDS011;57789;53.868;10.728;2024-01-11T20:38:19;43.40;;;21.13;;
70367;SDS011;57789;53.868;10.728;2024-01-11T20:40:44;51.07;;;22.40;;
70367;SDS011;57789;53.868;10.728;2024-01-11T20:43:10;46.33;;;17.87;;
70367;SDS011;57789;53.868;10.728;2024-01-11T20:45:38;43.07;;;20.83;;
70367;SDS011;57789;53.868;10.728;2024-01-11T20:48:04;43.70;;;21.07;;
70367;SDS011;57789;53.868;10.728;2024-01-11T20:50:30;41.63;;;18.93;;
70367;SDS011;57789;53.868;10.728;2024-01-11T20:52:56;42.00;;;18.47;;
70367;SDS011;57789;53.868;10.728;2024-01-11T20:55:22;36.47;;;17.67;;
70367;SDS011;57789;53.868;10.728;2024-01-11T20:57:48;34.83;;;16.73;;
70367;SDS011;57789;53.868;10.728;2024-01-11T21:00:14;33.20;;;16.43;;
70367;SDS011;57789;53.868;10.728;2024-01-11T21:02:43;29.97;;;16.23;;
70367;SDS011;57789;53.868;10.728;2024-01-11T21:05:09;33.30;;;16.67;;
70367;SDS011;57789;53.868;10.728;2024-01-11T21:07:35;44.40;;;17.30;;
70367;SDS011;57789;53.868;10.728;2024-01-11T21:10:01;36.73;;;17.47;;
70367;SDS011;57789;53.868;10.728;2024-01-11T21:12:27;38.63;;;19.47;;
70367;SDS011;57789;53.868;10.728;2024-01-11T21:14:52;48.87;;;18.40;;
70367;SDS011;57789;53.868;10.728;2024-01-11T21:17:18;36.30;;;17.60;;
70367;SDS011;57789;53.868;10.728;2024-01-11T21:19:45;43.20;;;20.20;;
70367;SDS011;57789;53.868;10.728;2024-01-11T21:22:12;40.50;;;18.00;;
70367;SDS011;57789;53.868;10.728;2024-01-11T21:24:38;36.03;;;17.50;;
70367;SDS011;57789;53.868;10.728;2024-01-11T21:27:03;46.23;;;19.07;;
70367;SDS011;57789;53.868;10.728;2024-01-11T21:29:29;34.07;;;18.20;;
70367;SDS011;57789;53.868;10.728;2024-01-11T21:31:55;40.60;;;19.93;;
70367;SDS011;57789;53.868;10.728;2024-01-11T21:34:22;41.30;;;19.23;;
70367;SDS011;57789;53.868;10.728;2024-01-11T21:36:48;34.03;;;17.30;;
70367;SDS011;57789;53.868;10.728;2024-01-11T21:39:14;41.27;;;19.47;;
70367;SDS011;57789;53.868;10.728;2024-01-11T21:41:40;40.07;;;18.77;;
70367;SDS011;57789;53.868;10.728;2024-01-11T21:44:06;45.93;;;17.77;;
70367;SDS011;57789;53.868;10.728;2024-01-11T21:46:32;45.43;;;19.90;;
70367;SDS011;57789;53.868;10.728;2024-01-11T21:48:58;42.77;;;18.30;;
70367;SDS011;57789;53.868;10.728;2024-01-11T21:51:25;39.40;;;17.90;;
70367;SDS011;57789;53.868;10.728;2024-01-11T21:53:51;44.50;;;19.03;;
70367;SDS011;57789;53.868;10.728;2024-01-11T21:56:22;41.00;;;17.30;;
70367;SDS011;57789;53.868;10.728;2024-01-11T21:58:51;36.93;;;18.47;;
70367;SDS011;57789;53.868;10.728;2024-01-11T22:01:18;36.90;;;18.50;;
70367;SDS011;57789;53.868;10.728;2024-01-11T22:03:44;45.03;;;20.67;;
70367;SDS011;57789;53.868;10.728;2024-01-11T22:06:10;43.43;;;20.00;;
70367;SDS011;57789;53.868;10.728;2024-01-11T22:08:36;41.47;;;18.77;;
70367;SDS011;57789;53.868;10.728;2024-01-11T22:11:03;41.80;;;19.00;;
70367;SDS011;57789;53.868;10.728;2024-01-11T22:13:29;44.93;;;19.90;;
70367;SDS011;57789;53.868;10.728;2024-01-11T22:15:55;50.70;;;21.57;;
70367;SDS011;57789;53.868;10.728;2024-01-11T22:18:21;47.17;;;19.57;;
70367;SDS011;57789;53.868;10.728;2024-01-11T22:20:47;48.70;;;20.73;;
70367;SDS011;57789;53.868;10.728;2024-01-11T22:23:13;42.17;;;20.13;;
70367;SDS011;57789;53.868;10.728;2024-01-11T22:25:39;49.47;;;20.30;;
70367;SDS011;57789;53.868;10.728;2024-01-11T22:28:05;45.53;;;20.37;;
70367;SDS011;57789;53.868;10.728;2024-01-11T22:30:31;46.30;;;20.90;;
70367;SDS011;57789;53.868;10.728;2024-01-11T22:32:57;47.00;;;20.37;;
70367;SDS011;57789;53.868;10.728;2024-01-11T22:35:23;47.07;;;21.03;;
70367;SDS011;57789;53.868;10.728;2024-01-11T22:37:49;40.30;;;19.97;;
70367;SDS011;57789;53.868;10.728;2024-01-11T22:40:15;37.83;;;17.60;;
70367;SDS011;57789;53.868;10.728;2024-01-11T22:42:42;41.57;;;19.73;;
70367;SDS011;57789;53.868;10.728;2024-01-11T22:45:08;41.37;;;20.10;;
70367;SDS011;57789;53.868;10.728;2024-01-11T22:47:34;38.20;;;15.93;;
70367;SDS011;57789;53.868;10.728;2024-01-11T22:50:00;39.30;;;17.73;;
70367;SDS011;57789;53.868;10.728;2024-01-11T22:52:26;45.07;;;20.93;;
70367;SDS011;57789;53.868;10.728;2024-01-11T22:54:51;38.97;;;18.70;;
70367;SDS011;57789;53.868;10.728;2024-01-11T22:57:17;39.13;;;19.80;;
70367;SDS011;57789;53.868;10.728;2024-01-11T22:59:44;48.17;;;20.90;;
70367;SDS011;57789;53.868;10.728;2024-01-11T23:02:10;54.63;;;22.60;;
70367;SDS011;57789;53.868;10.728;2024-01-11T23:04:37;53.30;;;21.40;;
70367;SDS011;57789;53.868;10.728;2024-01-11T23:07:06;69.17;;;27.47;;
70367;SDS011;57789;53.868;10.728;2024-01-11T23:09:32;69.03;;;23.87;;
70367;SDS011;57789;53.868;10.728;2024-01-11T23:11:58;62.27;;;24.67;;
70367;SDS011;57789;53.868;10.728;2024-01-11T23:14:25;64.60;;;24.30;;
70367;SDS011;57789;53.868;10.728;2024-01-11T23:16:52;67.90;;;24.93;;
70367;SDS011;57789;53.868;10.728;2024-01-11T23:19:18;56.87;;;22.00;;
70367;SDS011;57789;53.868;10.728;2024-01-11T23:21:43;54.37;;;23.10;;
70367;SDS011;57789;53.868;10.728;2024-01-11T23:24:10;51.33;;;23.87;;
70367;SDS011;57789;53.868;10.728;2024-01-11T23:26:36;61.30;;;21.50;;
70367;SDS011;57789;53.868;10.728;2024-01-11T23:29:02;46.07;;;19.50;;
70367;SDS011;57789;53.868;10.728;2024-01-11T23:31:28;39.03;;;18.60;;
70367;SDS011;57789;53.868;10.728;2024-01-11T23:33:54;47.87;;;19.97;;
70367;SDS011;57789;53.868;10.728;2024-01-11T23:36:20;51.97;;;21.90;;
70367;SDS011;57789;53.868;10.728;2024-01-11T23:38:45;46.67;;;21.53;;
70367;SDS011;57789;53.868;10.728;2024-01-11T23:41:13;48.23;;;21.40;;
70367;SDS011;57789;53.868;10.728;2024-01-11T23:43:39;51.93;;;19.90;;
70367;SDS011;57789;53.868;10.728;2024-01-11T23:46:05;46.37;;;20.17;;
70367;SDS011;57789;53.868;10.728;2024-01-11T23:48:31;45.63;;;19.27;;
70367;SDS011;57789;53.868;10.728;2024-01-11T23:51:01;42.63;;;18.50;;
70367;SDS011;57789;53.868;10.728;2024-01-11T23:53:27;48.63;;;19.90;;
70367;SDS011;57789;53.868;10.728;2024-01-11T23:55:53;52.53;;;22.37;;
70367;SDS011;57789;53.868;10.728;2024-01-11T23:58:19;61.67;;;22.43;;
